createdAt,value
2022-08-17T00:01:31.396Z,8.18
2022-08-17T00:04:19.036Z,8.70
2022-08-17T00:06:46.077Z,9.50
2022-08-17T00:09:19.026Z,9.82
2022-08-17T00:12:34.845Z,9.45
2022-08-17T00:14:35.008Z,10.05
2022-08-17T00:17:03.714Z,9.75
2022-08-17T00:19:30.381Z,10.95
2022-08-17T00:22:33.882Z,10.25
2022-08-17T00:24:47.273Z,10.27
2022-08-17T00:27:13.829Z,10.25
2022-08-17T00:29:40.539Z,10.63
2022-08-17T00:33:12.434Z,9.38
2022-08-17T00:34:53.814Z,10.88
2022-08-17T00:37:20.396Z,11.23
2022-08-17T00:39:46.933Z,11.85
2022-08-17T00:42:18.956Z,11.52
2022-08-17T00:44:46.177Z,11.57
2022-08-17T00:47:12.713Z,11.10
2022-08-17T00:49:39.569Z,11.55
2022-08-17T00:52:15.524Z,12.10
2022-08-17T00:54:44.876Z,11.20
2022-08-17T00:57:34.424Z,10.70
2022-08-17T01:00:08.940Z,9.80
2022-08-17T01:02:41.762Z,10.10
2022-08-17T01:05:16.362Z,10.18
2022-08-17T01:07:47.545Z,9.50
2022-08-17T01:10:58.269Z,9.20
2022-08-17T01:13:02.747Z,9.95
2022-08-17T01:15:36.165Z,9.95
2022-08-17T01:18:05.392Z,9.70
2022-08-17T01:20:32.503Z,8.80
2022-08-17T01:23:18.479Z,10.15
2022-08-17T01:25:54.192Z,9.27
2022-08-17T01:28:52.832Z,11.65
2022-08-17T01:31:09.708Z,9.80
2022-08-17T01:33:36.680Z,10.45
2022-08-17T01:36:04.987Z,10.43
2022-08-17T01:38:31.910Z,12.52
2022-08-17T01:41:03.200Z,12.00
2022-08-17T01:43:43.565Z,12.98
2022-08-17T01:46:16.826Z,12.27
2022-08-17T01:48:47.255Z,11.57
2022-08-17T01:51:15.510Z,12.55
2022-08-17T01:53:47.303Z,12.40
2022-08-17T01:56:18.245Z,12.15
2022-08-17T01:58:45.779Z,12.43
2022-08-17T02:01:14.760Z,11.82
2022-08-17T02:03:41.987Z,10.85
2022-08-17T02:06:27.690Z,11.73
2022-08-17T02:09:03.153Z,11.68
2022-08-17T02:11:32.388Z,11.25
2022-08-17T02:14:03.202Z,10.73
2022-08-17T02:16:37.564Z,11.13
2022-08-17T02:19:07.794Z,10.70
2022-08-17T02:21:36.120Z,10.60
2022-08-17T02:24:03.706Z,10.55
2022-08-17T02:26:30.162Z,10.57
2022-08-17T02:28:56.861Z,10.65
2022-08-17T02:31:23.419Z,10.70
2022-08-17T02:34:00.361Z,11.07
2022-08-17T02:36:34.440Z,10.45
2022-08-17T02:39:04.967Z,9.88
2022-08-17T02:41:31.491Z,10.38
2022-08-17T02:43:58.657Z,9.88
2022-08-17T02:46:25.532Z,9.82
2022-08-17T02:48:52.054Z,10.73
2022-08-17T02:51:18.714Z,9.63
2022-08-17T02:53:45.163Z,9.80
2022-08-17T02:56:11.656Z,10.43
2022-08-17T02:58:38.269Z,11.00
2022-08-17T03:01:07.474Z,11.13
2022-08-17T03:03:35.167Z,11.80
2022-08-17T03:06:02.105Z,11.45
2022-08-17T03:08:29.124Z,11.52
2022-08-17T03:10:56.431Z,10.98
2022-08-17T03:13:23.445Z,11.23
2022-08-17T03:15:50.636Z,10.00
2022-08-17T03:18:24.547Z,11.90
2022-08-17T03:20:57.244Z,11.85
2022-08-17T03:23:25.444Z,10.55
2022-08-17T03:25:53.962Z,11.13
2022-08-17T03:28:21.641Z,10.90
2022-08-17T03:30:48.563Z,11.60
2022-08-17T03:33:16.846Z,10.63
2022-08-17T03:35:43.554Z,10.30
2022-08-17T03:38:11.876Z,11.00
2022-08-17T03:40:56.259Z,10.55
2022-08-17T03:43:25.164Z,11.25
2022-08-17T03:46:27.312Z,11.27
2022-08-17T03:49:14.439Z,11.23
2022-08-17T03:51:59.400Z,10.77
2022-08-17T03:54:44.314Z,10.45
2022-08-17T03:57:12.510Z,11.10
2022-08-17T03:59:39.336Z,11.27
2022-08-17T04:02:11.394Z,10.65
2022-08-17T04:04:39.274Z,11.48
2022-08-17T04:07:06.917Z,11.98
2022-08-17T04:09:33.992Z,12.00
2022-08-17T04:12:02.325Z,12.55
2022-08-17T04:14:52.000Z,10.48
2022-08-17T04:17:26.199Z,10.75
2022-08-17T04:19:53.796Z,11.15
2022-08-17T04:22:32.375Z,11.18
2022-08-17T04:25:03.522Z,11.27
2022-08-17T04:27:30.040Z,11.23
2022-08-17T04:29:56.525Z,12.55
2022-08-17T04:32:59.294Z,12.60
2022-08-17T04:35:10.002Z,11.82
2022-08-17T04:37:36.590Z,12.68
2022-08-17T04:40:39.214Z,12.63
2022-08-17T04:43:18.840Z,12.48
2022-08-17T04:46:00.331Z,11.85
2022-08-17T04:48:36.499Z,12.57
2022-08-17T04:51:20.482Z,11.45
2022-08-17T04:53:54.062Z,11.73
2022-08-17T04:56:22.235Z,12.75
2022-08-17T04:58:50.819Z,12.95
2022-08-17T05:01:23.290Z,12.90
2022-08-17T05:03:52.150Z,13.18
2022-08-17T05:06:18.673Z,12.75
2022-08-17T05:08:45.215Z,13.10
2022-08-17T05:11:11.765Z,14.10
2022-08-17T05:13:38.314Z,15.65
2022-08-17T05:16:05.638Z,14.40
2022-08-17T05:18:32.647Z,15.07
2022-08-17T05:20:59.401Z,17.30
2022-08-17T05:23:42.098Z,19.10
2022-08-17T05:26:15.255Z,17.13
2022-08-17T05:28:54.993Z,17.77
2022-08-17T05:31:24.329Z,16.55
2022-08-17T05:33:50.926Z,17.50
2022-08-17T05:36:41.565Z,17.63
2022-08-17T05:39:04.241Z,16.10
2022-08-17T05:41:30.712Z,17.27
2022-08-17T05:43:57.272Z,15.73
2022-08-17T05:46:27.487Z,16.13
2022-08-17T05:49:02.318Z,16.13
2022-08-17T05:51:31.793Z,16.27
2022-08-17T05:56:43.939Z,15.27
2022-08-17T05:59:22.774Z,13.77
2022-08-17T06:02:02.815Z,13.65
2022-08-17T06:04:52.796Z,13.52
2022-08-17T06:07:31.778Z,12.70
2022-08-17T06:10:19.569Z,12.50
2022-08-17T06:13:07.942Z,10.95
2022-08-17T06:16:01.762Z,9.73
2022-08-17T06:18:41.767Z,9.27
2022-08-17T06:21:13.157Z,8.60
2022-08-17T06:23:45.131Z,9.07
2022-08-17T06:26:17.487Z,9.00
2022-08-17T06:29:00.339Z,7.88
2022-08-17T06:31:31.371Z,7.95
2022-08-17T06:34:00.199Z,8.70
2022-08-17T06:36:40.128Z,8.68
2022-08-17T06:39:19.938Z,7.60
2022-08-17T06:42:05.567Z,7.97
2022-08-17T06:44:43.492Z,7.35
2022-08-17T06:47:29.380Z,7.07
2022-08-17T06:50:05.607Z,7.40
2022-08-17T06:52:46.671Z,7.53
2022-08-17T06:55:26.406Z,6.53
2022-08-17T06:57:59.002Z,6.18
2022-08-17T07:00:36.835Z,6.40
2022-08-17T07:03:14.810Z,6.13
2022-08-17T07:05:46.456Z,5.88
2022-08-17T07:08:13.126Z,6.28
2022-08-17T07:10:51.058Z,6.30
2022-08-17T07:13:38.114Z,6.00
2022-08-17T07:16:14.659Z,6.60
2022-08-17T07:18:41.805Z,5.78
2022-08-17T07:21:25.844Z,5.70
2022-08-17T07:24:31.377Z,6.25
2022-08-17T07:27:16.449Z,6.68
2022-08-17T07:30:10.347Z,6.15
2022-08-17T07:32:45.226Z,5.90
2022-08-17T07:35:37.900Z,6.00
2022-08-17T07:38:24.957Z,5.50
2022-08-17T07:41:02.624Z,5.60
2022-08-17T07:43:41.616Z,5.75
2022-08-17T07:46:41.692Z,6.50
2022-08-17T07:49:11.184Z,5.55
2022-08-17T07:51:53.677Z,5.82
2022-08-17T07:54:28.756Z,5.78
2022-08-17T07:57:03.442Z,5.90
2022-08-17T07:59:36.075Z,5.65
2022-08-17T08:02:20.134Z,5.30
2022-08-17T08:05:01.456Z,5.40
2022-08-17T08:08:00.683Z,5.32
2022-08-17T08:10:38.068Z,5.47
2022-08-17T08:13:10.700Z,5.60
2022-08-17T08:15:54.336Z,5.68
2022-08-17T08:18:53.787Z,5.60
2022-08-17T08:21:33.821Z,6.10
2022-08-17T08:24:00.339Z,5.30
2022-08-17T08:26:55.359Z,5.18
2022-08-17T08:29:35.654Z,6.22
2022-08-17T08:32:18.190Z,5.43
2022-08-17T08:35:04.327Z,4.90
2022-08-17T08:37:37.893Z,4.57
2022-08-17T08:40:34.847Z,5.35
2022-08-17T08:43:02.311Z,7.38
2022-08-17T08:45:38.431Z,5.40
2022-08-17T08:48:53.333Z,5.20
2022-08-17T08:51:35.820Z,4.65
2022-08-17T08:54:34.539Z,4.60
2022-08-17T08:57:26.845Z,3.97
2022-08-17T09:00:17.152Z,4.13
2022-08-17T09:03:08.398Z,4.03
2022-08-17T09:05:50.082Z,4.38
2022-08-17T09:08:32.317Z,4.20
2022-08-17T09:11:18.199Z,3.80
2022-08-17T09:13:55.517Z,3.92
2022-08-17T09:16:29.664Z,4.03
2022-08-17T09:19:08.474Z,3.92
2022-08-17T09:21:48.786Z,4.10
2022-08-17T09:24:43.406Z,3.92
2022-08-17T09:27:26.698Z,4.00
2022-08-17T09:29:59.026Z,4.40
2022-08-17T09:32:38.279Z,3.85
2022-08-17T09:35:15.983Z,3.70
2022-08-17T09:38:05.209Z,4.03
2022-08-17T09:40:34.536Z,3.53
2022-08-17T09:43:10.029Z,3.72
2022-08-17T09:45:50.559Z,3.75
2022-08-17T09:48:38.473Z,3.70
2022-08-17T09:51:15.274Z,3.58
2022-08-17T09:53:44.541Z,3.65
2022-08-17T09:56:36.398Z,3.65
2022-08-17T09:59:20.086Z,3.28
2022-08-17T10:01:58.705Z,3.75
2022-08-17T10:04:40.817Z,3.50
2022-08-17T10:07:15.401Z,3.60
2022-08-17T10:10:03.941Z,3.50
2022-08-17T10:12:53.182Z,3.40
2022-08-17T10:15:40.813Z,3.47
2022-08-17T10:18:17.635Z,3.10
2022-08-17T10:21:21.501Z,3.08
2022-08-17T10:24:15.855Z,3.60
2022-08-17T10:26:57.057Z,3.13
2022-08-17T10:29:49.639Z,3.22
2022-08-17T10:32:32.148Z,3.25
2022-08-17T10:35:01.713Z,2.97
2022-08-17T10:37:46.568Z,3.10
2022-08-17T10:40:30.369Z,3.08
2022-08-17T10:43:19.188Z,3.17
2022-08-17T10:46:09.531Z,3.25
2022-08-17T10:49:18.144Z,2.95
2022-08-17T10:51:52.841Z,2.92
2022-08-17T10:54:25.004Z,3.10
2022-08-17T10:56:54.170Z,3.15
2022-08-17T10:59:35.716Z,2.92
2022-08-17T11:02:12.256Z,3.22
2022-08-17T11:04:47.884Z,3.05
2022-08-17T11:07:32.815Z,2.83
2022-08-17T11:10:08.407Z,3.00
2022-08-17T11:12:54.239Z,3.20
2022-08-17T11:15:47.362Z,2.80
2022-08-17T11:18:41.802Z,2.80
2022-08-17T11:21:15.170Z,2.60
2022-08-17T11:24:06.049Z,3.05
2022-08-17T11:26:35.809Z,2.95
2022-08-17T11:29:08.884Z,2.75
2022-08-17T11:31:40.129Z,2.72
2022-08-17T11:34:21.895Z,3.10
2022-08-17T11:37:19.584Z,3.40
2022-08-17T11:40:20.634Z,4.03
2022-08-17T11:42:58.988Z,3.05
2022-08-17T11:45:50.006Z,3.63
2022-08-17T11:48:48.062Z,3.47
2022-08-17T11:51:36.201Z,3.42
2022-08-17T11:54:31.728Z,3.30
2022-08-17T11:56:54.886Z,5.00
2022-08-17T11:59:33.311Z,5.53
2022-08-17T12:02:02.604Z,7.10
2022-08-17T12:04:34.782Z,6.82
2022-08-17T12:07:17.689Z,5.28
2022-08-17T12:09:48.594Z,5.35
2022-08-17T12:12:22.802Z,5.88
2022-08-17T12:15:11.007Z,5.97
2022-08-17T12:17:40.837Z,6.93
2022-08-17T12:20:21.390Z,6.18
2022-08-17T12:23:01.045Z,6.00
2022-08-17T12:25:40.306Z,5.82
2022-08-17T12:28:22.861Z,7.50
2022-08-17T12:30:52.030Z,7.72
2022-08-17T12:33:25.547Z,6.88
2022-08-17T12:36:08.627Z,6.13
2022-08-17T12:38:37.893Z,6.07
2022-08-17T12:44:03.924Z,6.93
2022-08-17T12:46:34.838Z,7.80
2022-08-17T12:49:30.054Z,7.43
2022-08-17T12:52:08.991Z,7.57
2022-08-17T12:54:47.563Z,6.90
2022-08-17T12:57:19.013Z,6.75
2022-08-17T12:59:50.520Z,7.50
2022-08-17T13:02:24.551Z,7.93
2022-08-17T13:04:51.346Z,7.38
2022-08-17T13:07:35.668Z,8.13
2022-08-17T13:10:03.997Z,8.40
2022-08-17T13:12:34.367Z,8.37
2022-08-17T13:15:01.536Z,6.13
2022-08-17T13:17:31.863Z,6.40
2022-08-17T13:19:58.929Z,5.60
2022-08-17T13:22:27.859Z,6.45
2022-08-17T13:24:58.310Z,6.53
2022-08-17T13:27:27.684Z,8.15
2022-08-17T13:30:00.479Z,7.45
2022-08-17T13:32:45.033Z,6.88
2022-08-17T13:35:40.578Z,7.20
2022-08-17T13:38:11.703Z,6.70
2022-08-17T13:40:52.230Z,6.47
2022-08-17T13:43:40.674Z,5.78
2022-08-17T13:46:11.561Z,7.03
2022-08-17T13:48:38.996Z,6.80
2022-08-17T13:51:14.158Z,6.97
2022-08-17T13:53:40.632Z,6.45
2022-08-17T13:56:37.249Z,5.90
2022-08-17T13:59:05.069Z,5.78
2022-08-17T14:01:36.088Z,6.43
2022-08-17T14:04:06.998Z,5.65
2022-08-17T14:06:52.915Z,6.13
2022-08-17T14:09:26.846Z,6.65
2022-08-17T14:11:55.535Z,6.53
2022-08-17T14:14:25.344Z,6.10
2022-08-17T14:16:53.758Z,6.45
2022-08-17T14:19:22.039Z,5.87
2022-08-17T14:21:49.699Z,5.93
2022-08-17T14:24:24.148Z,5.53
2022-08-17T14:26:52.950Z,5.70
2022-08-17T14:29:20.793Z,5.70
2022-08-17T14:31:53.287Z,5.53
2022-08-17T14:34:21.578Z,5.30
2022-08-17T14:36:48.873Z,4.70
2022-08-17T14:39:17.733Z,4.50
2022-08-17T14:41:44.670Z,4.30
2022-08-17T14:44:12.600Z,4.30
2022-08-17T14:46:40.892Z,4.28
2022-08-17T14:49:08.935Z,4.07
2022-08-17T14:51:43.580Z,3.85
2022-08-17T14:54:11.282Z,4.05
2022-08-17T14:56:38.603Z,3.92
2022-08-17T14:59:05.178Z,3.38
2022-08-17T15:01:31.890Z,3.90
2022-08-17T15:03:58.529Z,3.30
2022-08-17T15:06:25.024Z,3.53
2022-08-17T15:08:51.622Z,3.40
2022-08-17T15:11:18.316Z,2.90
2022-08-17T15:13:52.692Z,3.35
2022-08-17T15:16:20.405Z,3.08
2022-08-17T15:18:46.933Z,2.90
2022-08-17T15:21:14.842Z,3.00
2022-08-17T15:23:41.537Z,3.05
2022-08-17T15:26:10.797Z,2.88
2022-08-17T15:28:37.754Z,3.03
2022-08-17T15:31:05.690Z,2.70
2022-08-17T15:33:32.888Z,2.70
2022-08-17T15:36:02.874Z,2.80
2022-08-17T15:38:30.481Z,2.75
2022-08-17T15:40:58.384Z,2.55
2022-08-17T15:43:28.366Z,2.72
2022-08-17T15:46:18.634Z,2.80
2022-08-17T15:48:48.327Z,2.38
2022-08-17T15:51:27.433Z,2.90
2022-08-17T15:54:00.256Z,2.60
2022-08-17T15:56:31.682Z,2.92
2022-08-17T15:58:58.828Z,2.88
2022-08-17T16:01:57.406Z,3.15
2022-08-17T16:04:29.711Z,3.20
2022-08-17T16:06:57.911Z,2.70
2022-08-17T16:09:24.483Z,3.00
2022-08-17T16:11:55.332Z,2.42
2022-08-17T16:14:23.156Z,2.78
2022-08-17T16:16:51.049Z,2.60
2022-08-17T16:19:19.881Z,2.80
2022-08-17T16:21:46.499Z,2.80
2022-08-17T16:24:13.647Z,2.50
2022-08-17T16:26:42.202Z,2.78
2022-08-17T16:29:09.036Z,2.83
2022-08-17T16:31:38.790Z,2.45
2022-08-17T16:34:17.671Z,2.53
2022-08-17T16:36:55.636Z,2.78
2022-08-17T16:39:28.861Z,2.65
2022-08-17T16:41:56.550Z,2.67
2022-08-17T16:44:23.188Z,2.72
2022-08-17T16:46:50.345Z,2.60
2022-08-17T16:49:25.799Z,3.00
2022-08-17T16:52:06.343Z,3.00
2022-08-17T16:54:35.423Z,2.78
2022-08-17T16:57:04.874Z,2.97
2022-08-17T16:59:40.914Z,2.78
2022-08-17T17:04:51.917Z,2.90
2022-08-17T17:07:40.236Z,4.03
2022-08-17T17:10:15.585Z,5.25
2022-08-17T17:13:02.871Z,5.63
2022-08-17T17:15:47.234Z,6.38
2022-08-17T17:18:15.821Z,9.18
2022-08-17T17:20:54.566Z,10.65
2022-08-17T17:23:46.084Z,9.63
2022-08-17T17:26:39.645Z,9.88
2022-08-17T17:29:46.535Z,10.98
2022-08-17T17:32:24.679Z,12.07
2022-08-17T17:34:59.531Z,11.02
2022-08-17T17:37:34.104Z,11.27
2022-08-17T17:40:12.466Z,13.25
2022-08-17T17:42:42.162Z,13.35
2022-08-17T17:45:25.827Z,12.05
2022-08-17T17:47:53.481Z,13.00
2022-08-17T17:50:26.535Z,12.50
2022-08-17T17:53:04.039Z,11.30
2022-08-17T17:55:47.130Z,13.43
2022-08-17T17:58:42.578Z,13.02
2022-08-17T18:01:27.669Z,13.57
2022-08-17T18:04:20.516Z,13.82
2022-08-17T18:07:18.793Z,12.88
2022-08-17T18:10:29.350Z,14.13
2022-08-17T18:13:13.229Z,13.48
2022-08-17T18:15:52.132Z,13.40
2022-08-17T18:18:33.083Z,12.20
2022-08-17T18:21:06.848Z,13.75
2022-08-17T18:23:34.126Z,13.68
2022-08-17T18:26:02.000Z,14.43
2022-08-17T18:28:28.472Z,14.27
2022-08-17T18:31:04.081Z,16.63
2022-08-17T18:33:30.627Z,15.82
2022-08-17T18:35:58.755Z,17.73
2022-08-17T18:38:33.849Z,17.00
2022-08-17T18:41:25.887Z,17.95
2022-08-17T18:44:06.436Z,18.58
2022-08-17T18:46:37.755Z,18.25
2022-08-17T18:49:26.179Z,17.23
2022-08-17T18:52:16.190Z,17.57
2022-08-17T18:55:13.758Z,17.13
2022-08-17T18:57:46.872Z,18.95
2022-08-17T19:00:13.691Z,19.50
2022-08-17T19:02:58.756Z,19.23
2022-08-17T19:05:27.795Z,19.48
2022-08-17T19:07:54.852Z,19.90
2022-08-17T19:10:28.791Z,20.52
2022-08-17T19:13:00.718Z,18.45
2022-08-17T19:15:35.506Z,19.83
2022-08-17T19:18:34.698Z,19.17
2022-08-17T19:21:20.502Z,20.77
2022-08-17T19:23:53.377Z,19.95
2022-08-17T19:26:55.382Z,22.63
2022-08-17T19:29:16.607Z,24.27
2022-08-17T19:31:46.325Z,22.77
2022-08-17T19:34:17.582Z,21.63
2022-08-17T19:37:07.529Z,22.70
2022-08-17T19:40:02.133Z,22.90
2022-08-17T19:42:41.187Z,25.92
2022-08-17T19:45:19.362Z,28.50
2022-08-17T19:48:21.064Z,27.88
2022-08-17T19:51:01.328Z,28.63
2022-08-17T19:54:04.758Z,30.52
2022-08-17T19:56:47.676Z,28.88
2022-08-17T19:59:52.170Z,29.33
2022-08-17T20:02:31.411Z,26.80
2022-08-17T20:07:36.846Z,30.20
2022-08-17T20:10:11.048Z,31.48
2022-08-17T20:12:41.151Z,32.15
2022-08-17T20:15:38.950Z,30.15
2022-08-17T20:18:13.577Z,33.58
2022-08-17T20:20:55.949Z,29.40
2022-08-17T20:23:44.851Z,31.52
2022-08-17T20:26:34.341Z,33.25
2022-08-17T20:29:37.232Z,32.92
2022-08-17T20:32:17.984Z,31.15
2022-08-17T20:34:47.209Z,33.45
2022-08-17T20:37:13.608Z,33.47
2022-08-17T20:39:40.281Z,33.55
2022-08-17T20:42:22.565Z,35.03
2022-08-17T20:44:52.548Z,32.38
2022-08-17T20:47:27.475Z,29.52
2022-08-17T20:50:27.110Z,31.23
2022-08-17T20:52:57.959Z,32.60
2022-08-17T20:55:52.945Z,34.00
2022-08-17T20:58:23.190Z,34.03
2022-08-17T21:00:58.944Z,34.60
2022-08-17T21:03:32.253Z,36.33
2022-08-17T21:06:18.130Z,35.22
2022-08-17T21:09:18.861Z,36.63
2022-08-17T21:12:04.423Z,34.45
2022-08-17T21:14:40.913Z,33.45
2022-08-17T21:17:31.617Z,33.28
2022-08-17T21:20:27.418Z,34.22
2022-08-17T21:23:13.080Z,36.25
2022-08-17T21:25:57.892Z,34.72
2022-08-17T21:29:00.742Z,34.80
2022-08-17T21:31:40.011Z,38.78
2022-08-17T21:34:15.459Z,33.23
2022-08-17T21:36:43.844Z,38.28
2022-08-17T21:39:14.207Z,35.70
2022-08-17T21:41:52.694Z,36.88
2022-08-17T21:44:30.939Z,35.08
2022-08-17T21:47:13.890Z,38.75
2022-08-17T21:49:40.419Z,39.40
2022-08-17T21:52:07.465Z,39.28
2022-08-17T21:54:38.736Z,39.60
2022-08-17T21:57:14.809Z,38.17
2022-08-17T21:59:43.608Z,40.20
2022-08-17T22:02:22.646Z,41.55
2022-08-17T22:05:07.371Z,42.95
2022-08-17T22:07:53.071Z,44.22
2022-08-17T22:10:34.564Z,39.97
2022-08-17T22:13:16.881Z,41.92
2022-08-17T22:15:47.506Z,40.72
2022-08-17T22:18:22.900Z,42.75
2022-08-17T22:20:52.223Z,42.50
2022-08-17T22:27:00.199Z,41.97
2022-08-17T22:29:45.473Z,47.17
2022-08-17T22:32:31.118Z,43.13
2022-08-17T22:35:16.279Z,43.60
2022-08-17T22:37:42.896Z,42.20
2022-08-17T22:40:09.522Z,44.45
2022-08-17T22:42:47.378Z,43.10
2022-08-17T22:45:14.243Z,44.17
2022-08-17T22:47:48.446Z,45.70
2022-08-17T22:50:25.578Z,41.50
2022-08-17T22:53:20.129Z,43.17
2022-08-17T22:56:13.757Z,46.67
2022-08-17T22:59:15.900Z,47.33
2022-08-17T23:01:45.404Z,49.45
2022-08-17T23:04:36.742Z,48.53
2022-08-17T23:07:03.428Z,47.33
2022-08-17T23:09:29.909Z,40.00
2022-08-17T23:11:59.772Z,44.65
2022-08-17T23:14:31.648Z,42.80
2022-08-17T23:16:59.352Z,41.03
2022-08-17T23:19:27.284Z,42.72
2022-08-17T23:21:56.256Z,39.90
2022-08-17T23:24:26.924Z,42.38
2022-08-17T23:26:57.174Z,43.03
2022-08-17T23:29:24.831Z,38.40
2022-08-17T23:31:52.693Z,38.38
2022-08-17T23:34:19.569Z,43.08
2022-08-17T23:36:50.644Z,43.08
2022-08-17T23:39:24.697Z,44.05
2022-08-17T23:42:00.336Z,44.30
2022-08-17T23:44:28.773Z,42.40
2022-08-17T23:46:55.346Z,38.83
2022-08-17T23:49:23.454Z,38.22
2022-08-17T23:51:50.313Z,36.30
2022-08-17T23:54:28.763Z,42.85
2022-08-17T23:56:55.408Z,44.70
2022-08-17T23:59:23.116Z,43.40
